プンタアレナス空港の過去48時間の天気

プンタアレナス空港 (Punta Arenas)

現在時刻: 2/6 17:15 -03 (2/6 20:15 UTC) 以下の時間は現地時間です。

過去48時間のMETAR気象情報
時間 風向 風速(m/s) 視程 気温(℃) 湿度(%) 気圧(hPa) 天気現象
6 17:00 西 11 10km以上 17 52 999
6 16:00 西北西 13 10km以上 18 49 999
6 15:00 西 15 10km以上 18 45 999
6 10:00 西 13 10km以上 15 55 999
6 09:00 西北西 11 10km以上 13 67 999
6 08:00 西北西 9 10km以上 12 67 999
6 07:16 西北西 10 10km以上 12 67 999
6 07:07 西北西 11 10km以上 13 62 999
6 07:00 北西 9 10km以上 12 67 999
6 06:00 北西 11 10km以上 12 67 999
6 05:27 北西 10 10km以上 12 67 1000
6 05:00 北西 9 10km以上 11 76 1000
6 04:20 北西 11 10km以上 12 67 1001
6 04:18 北西 10 10km以上 12 67 1001
6 04:00 北西 8 10km以上 11 71 1001 弱い雨
6 03:00 北北西 7 10km以上 10 66 1001
6 02:00 西北西 9 10km以上 11 62 1002
6 01:00 北西 5 10km以上 10 71 1003
6 00:00 北西 3 10km以上 9 81 1003
5 23:00 西 6 10km以上 10 76 1004
5 22:03 西 10 10km以上 10 71 1003
5 22:00 西 7 10km以上 10 71 1004
5 21:00 西南西 8 10km以上 10 71 1003
5 20:00 西 7 10km以上 11 62 1003
5 19:00 西南西 10 10km以上 13 47 1003
5 18:00 西 13 10km以上 13 41 1002
5 17:00 西 14 10km以上 13 41 1002
5 16:00 西 15 10km以上 13 38 1002
5 15:00 西南西 16 10km以上 12 44 1002
5 14:00 西南西 15 10km以上 11 50 1002
5 13:00 西南西 14 10km以上 10 54 1001
5 12:00 西 14 10km以上 10 58 1000
5 11:00 西南西 17 10km以上 10 54 998
5 10:00 西南西 19 10km以上 9 57 996
5 09:00 西 19 10km以上 9 62 994
5 08:00 西 22 10km以上 9 57 992
5 07:00 西 20 10km以上 8 66 990
5 06:48 西 19 10km以上 8 66 990
5 06:37 西 16 10km以上 8 71 990
5 06:30 西 16 10km以上 8 71 990
5 06:07 西北西 17 10km以上 8 71 990
5 06:00 西北西 18 10km以上 8 71 989
5 05:43 西北西 17 10km以上 8 71 989
5 05:39 西北西 17 10km以上 8 71 989
5 05:00 西北西 16 10km以上 8 76 989
5 04:54 西北西 16 10km以上 8 76 989
5 04:00 西北西 15 10km以上 8 71 989
5 03:19 西北西 14 10km以上 9 62 989
5 03:13 西北西 13 10km以上 9 62 989
5 03:06 西 14 10km以上 9 66 989
5 03:00 西 16 10km以上 9 62 989
5 02:50 西 15 10km以上 9 62 989
5 02:47 西 15 10km以上 9 62 989
5 02:35 西 12 10km以上 9 66 989
5 02:29 西 13 10km以上 9 66 989
5 02:14 西 15 10km以上 9 66 989
5 02:00 西 15 10km以上 9 71 989
5 01:54 西 15 10km以上 9 71 989
5 01:47 西 15 10km以上 9 66 989
5 01:26 西 14 10km以上 10 66 989
5 01:18 西 14 10km以上 10 66 989
5 01:00 西北西 14 10km以上 10 71 988
5 00:56 西北西 14 10km以上 10 71 988
5 00:50 西北西 13 10km以上 10 71 988
5 00:37 西 12 10km以上 11 71 988
5 00:23 西 14 10km以上 11 67 988
5 00:13 西北西 13 10km以上 12 62 988
5 00:00 西北西 12 10km以上 12 67 988
4 23:52 西北西 12 10km以上 12 67 988
4 23:48 西北西 11 10km以上 12 67 988
4 23:00 西 11 10km以上 12 82 987
4 22:00 西北西 13 10km以上 13 88 987
4 21:09 西北西 11 10km以上 13 88 988
4 21:05 西北西 11 10km以上 13 88 988
4 20:00 北西 7 10km以上 12 94 991 弱い雨
4 19:00 4 10km以上 11 94 992 弱い雨
4 18:00 北北東 4 8000m 10 94 993 弱い雨
SCCI 062000Z 28022KT 9999 BKN040 17/07 Q0999 NOSIG
SCCI 061900Z 29026G36KT 9999 SCT040 SCT100 18/07 Q0999 NOSIG
SCCI 061800Z 27029G39KT 9999 SCT040 BKN100 18/06 Q0999 NOSIG
SCCI 061300Z 28026G38KT 9999 FEW043 BKN100 15/06 Q0999 NOSIG
SCCI 061200Z 29021G31KT 9999 FEW043 BKN100 13/07 Q0999 NOSIG
SCCI 061100Z 30018KT 9999 FEW043 BKN100 12/06 Q0999 NOSIG
SCCI 061016Z AUTO 30019KT 9999 FEW044/// SCT051/// OVC062/// 12/06 Q0999
SCCI 061007Z AUTO 30021KT 9999 SCT047/// OVC062/// 13/06 Q0999
SCCI 061000Z AUTO 31018KT 9999 OVC045/// 12/06 Q0999
SCCI 060900Z AUTO 31021KT 9999 OVC046/// 12/06 Q0999
SCCI 060827Z AUTO 31019KT 9999 SCT047/// BKN067/// OVC150/// 12/06 Q1000
SCCI 060800Z AUTO 31018KT 9999 OVC046/// 11/07 Q1000
SCCI 060720Z AUTO 31022KT 9999 OVC043/// 12/06 Q1001
SCCI 060718Z AUTO 31020G30KT 9999 OVC043/// 12/06 Q1001
SCCI 060700Z AUTO 31015KT 9999 -RA OVC043/// 11/06 Q1001
SCCI 060600Z AUTO 33013KT 9999 FEW048/// BKN072/// OVC130/// 10/04 Q1001
SCCI 060500Z AUTO 30017KT 9999 FEW062/// BKN160/// 11/04 Q1002
SCCI 060400Z AUTO 32009KT 9999 BKN051/// 10/05 Q1003
SCCI 060300Z AUTO 32006KT 9999 SCT031/// BKN160/// BKN230/// 09/06 Q1003
SCCI 060200Z AUTO 28012KT 9999 FEW053/// BKN160/// BKN180/// 10/06 Q1004
SCCI 060103Z AUTO 27019KT 9999 FEW029/// BKN040/// 10/05 Q1003
SCCI 060100Z AUTO 27014KT 9999 BKN041/// 10/05 Q1004
SCCI 060000Z 25016KT 9999 BKN040 10/05 Q1003 NOSIG
SCCI 052300Z 26014KT CAVOK 11/04 Q1003 NOSIG
SCCI 052200Z 25019G29KT 9999 SCT040 13/02 Q1003 NOSIG
SCCI 052100Z 26025KT CAVOK 13/M00 Q1002 NOSIG
SCCI 052000Z 26027KT CAVOK 13/M00 Q1002 NOSIG
SCCI 051900Z 26030KT CAVOK 13/M01 Q1002 NOSIG
SCCI 051800Z 25031G45KT CAVOK 12/00 Q1002 NOSIG
SCCI 051700Z 25029G40KT CAVOK 11/01 Q1002 NOSIG
SCCI 051600Z 25027G39KT 9999 SCT040 10/01 Q1001 NOSIG
SCCI 051500Z 26027G37KT 9999 FEW040 10/02 Q1000 NOSIG
SCCI 051400Z 25034G48KT CAVOK 10/01 Q0998 NOSIG
SCCI 051300Z 25037G53KT CAVOK 09/01 Q0996 NOSIG
SCCI 051200Z 26036G50KT 9999 FEW040 09/02 Q0994 NOSIG
SCCI 051100Z 27042G60KT CAVOK 09/01 Q0992 NOSIG
SCCI 051000Z AUTO 28039G52KT 9999 FEW031/// 08/02 Q0990
SCCI 050948Z AUTO 28037G52KT 9999 FEW030/// 08/02 Q0990
SCCI 050937Z AUTO 28032G42KT 9999 FEW030/// 08/03 Q0990
SCCI 050930Z AUTO 28031KT 9999 FEW030/// 08/03 Q0990
SCCI 050907Z AUTO 29033G43KT 9999 FEW029/// SCT047/// 08/03 Q0990
SCCI 050900Z AUTO 29035KT 9999 FEW029/// 08/03 Q0989
SCCI 050843Z AUTO 29034G44KT 9999 FEW035/// SCT041/// 08/03 Q0989
SCCI 050839Z AUTO 29033G43KT 9999 FEW041/// 08/03 Q0989
SCCI 050800Z AUTO 30032G43KT 9999 FEW054/// BKN068/// 08/04 Q0989
SCCI 050754Z AUTO 30031G41KT 9999 FEW054/// BKN066/// 08/04 Q0989
SCCI 050700Z AUTO 29030G43KT 9999 BKN069/// BKN087/// 08/03 Q0989
SCCI 050619Z AUTO 29028G45KT CAVOK 09/02 Q0989
SCCI 050613Z AUTO 29026KT CAVOK 09/02 Q0989
SCCI 050606Z AUTO 28027KT CAVOK 09/03 Q0989
SCCI 050600Z AUTO 28031G43KT CAVOK 09/02 Q0989
SCCI 050550Z AUTO 28030G41KT CAVOK 09/02 Q0989
SCCI 050547Z AUTO 28029G39KT CAVOK 09/02 Q0989
SCCI 050535Z AUTO 28024G36KT CAVOK 09/03 Q0989
SCCI 050529Z AUTO 28025KT CAVOK 09/03 Q0989
SCCI 050514Z AUTO 28029G39KT CAVOK 09/03 Q0989
SCCI 050500Z AUTO 28029G39KT CAVOK 09/04 Q0989
SCCI 050454Z AUTO 28029G39KT CAVOK 09/04 Q0989
SCCI 050447Z AUTO 28030KT CAVOK 09/03 Q0989
SCCI 050426Z AUTO 28027G37KT CAVOK 10/04 Q0989
SCCI 050418Z AUTO 28028KT CAVOK 10/04 Q0989
SCCI 050400Z AUTO 29027G38KT CAVOK 10/05 Q0988
SCCI 050356Z AUTO 29027G38KT CAVOK 10/05 Q0988
SCCI 050350Z AUTO 29025KT CAVOK 10/05 Q0988
SCCI 050337Z AUTO 28024G34KT 9999 FEW063/// 11/06 Q0988
SCCI 050323Z AUTO 28027KT 9999 SCT064/// 11/05 Q0988
SCCI 050313Z AUTO 29026G39KT 9999 SCT065/// 12/05 Q0988
SCCI 050300Z AUTO 30024KT CAVOK 12/06 Q0988
SCCI 050252Z AUTO 30024KT CAVOK 12/06 Q0988
SCCI 050248Z AUTO 30021G33KT CAVOK 12/06 Q0988
SCCI 050200Z AUTO 28021KT 9999 FEW014/// SCT020/// 12/09 Q0987
SCCI 050100Z AUTO 30025KT 9999 FEW048/// 13/11 Q0987
SCCI 050009Z AUTO 30021KT CAVOK 13/11 Q0988
SCCI 050005Z AUTO 30021G31KT CAVOK 13/11 Q0988
SCCI 042300Z 32013KT 9999 -RA BKN040 OVC070 12/11 Q0991 NOSIG
SCCI 042200Z 35008KT 9999 -RA BKN030 OVC045 11/10 Q0992 NOSIG
SCCI 042100Z 03008KT 8000 -RA SCT025 BKN030 OVC040 10/09 Q0993 NOSIG